Andice, TX

8:54 AM CST on January 29, 2015 (GMT -0600)
Lago Vista | Change Station
CLOSE
Current Station
Airport
Location: Lago Vista,
Elevation: 1230 ft
Nearby Weather Stations

Elev 1230 ft 30.50 °N, 97.97 °W | Updated 19 minutes ago

Clear
Clear
59 °F
Feels Like 59 °F
N
5
Wind Variable Wind from SSW

Today
High -- | Low -- °F
--% Chance of Precip.
Yesterday
High -- | Low -- °F
Precip. -- in
7:24 AM 6:04 PM
Waxing Gibbous, 75% visible
Pressure 30.23 in
Visibility 10.0 miles
Clouds Clear
Dew Point 53 °F
Humidity 82%
Rainfall 0.00 in
Snow Depth Not available.
UV 1 out of 12
Pollen 6.60 out of 12
Air Quality Not available.
Flu Activity Not available.
METAR KRYW 291435Z AUTO 21004KT 10SM CLR 15/12 A3023 RMK AO2 T01500119

More Conditions Fewer Conditions

Pressure 30.23 in
Visibility 10.0 miles
Clouds Clear
Dew Point 53 °F
Humidity 82%
Rainfall 0.00 in
Snow Depth Not available.
UV 1 out of 12
Pollen 6.60 out of 12
Air Quality Not available.
Flu Activity Not available.
METAR KRYW 291435Z AUTO 21004KT 10SM CLR 15/12 A3023 RMK AO2 T01500119

More Conditions Fewer Conditions

Nowcast | as of 6:31 am CST on January 29, 2015

Patchy dense fog will persist through 9 am. Local visibilities of one quarter mile or less can be expected. If driving...slow down...use low beam headlights...and leave plenty of distance ahead of you.

×

10-Day Weather Forecast

Almanac

Astronomy

Jan. 29, 2015 Rise Set
Actual Time
Civil Twilight
Nautical Twilight
Astronomical Twilight
Moon
Length of Visible Light
Length of Day
Tomorrow will be .
, % of the Moon is Illuminated

Today's Extremes

State Highs State Lows

Community

WunderPhotos

Upload Photos

1,791,443 photos uploaded!

WunderBlogs® & News

Nearby

Air Quality

  Air Quality AQ Index Pollutant
Not available.

Snow Depth

Station Depth Elevation

Earthquake Activity

City Distance Mag. Time & Date
Minimum magnitude displayed is 2.5.

Coastal Water Temperatures

Place Temperature

Nearby Weather Stations